createdAt,value
2023-05-19T00:00:13.597Z,0.00
2023-05-19T00:01:13.536Z,0.00
2023-05-19T00:02:13.560Z,0.00
2023-05-19T00:03:13.800Z,0.00
2023-05-19T00:04:13.519Z,0.00
2023-05-19T00:05:13.530Z,0.00
2023-05-19T00:06:13.515Z,0.00
2023-05-19T00:07:13.471Z,0.00
2023-05-19T00:08:13.470Z,0.00
2023-05-19T00:09:13.465Z,0.00
2023-05-19T00:10:13.476Z,0.00
2023-05-19T00:11:13.429Z,0.00
2023-05-19T00:12:13.451Z,0.00
2023-05-19T00:13:14.365Z,0.00
2023-05-19T00:14:13.411Z,0.00
2023-05-19T00:15:13.411Z,0.00
2023-05-19T00:16:13.463Z,0.00
2023-05-19T00:17:13.395Z,0.00
2023-05-19T00:18:13.479Z,0.00
2023-05-19T00:19:13.437Z,0.00
2023-05-19T00:20:13.355Z,0.00
2023-05-19T00:21:13.327Z,0.00
2023-05-19T00:22:13.337Z,0.00
2023-05-19T00:23:13.338Z,0.00
2023-05-19T00:24:14.328Z,0.00
2023-05-19T00:25:13.296Z,0.00
2023-05-19T00:26:13.293Z,0.00
2023-05-19T00:27:13.284Z,0.00
2023-05-19T00:28:13.274Z,0.00
2023-05-19T00:29:13.279Z,0.00
2023-05-19T00:30:13.260Z,0.00
2023-05-19T00:31:13.225Z,0.00
2023-05-19T00:32:13.410Z,0.00
2023-05-19T00:33:13.228Z,0.00
2023-05-19T00:34:13.199Z,0.00
2023-05-19T00:35:13.214Z,0.00
2023-05-19T00:36:13.187Z,0.00
2023-05-19T00:37:13.222Z,0.00
2023-05-19T00:38:13.163Z,0.00
2023-05-19T00:39:13.164Z,0.00
2023-05-19T00:40:13.145Z,0.00
2023-05-19T00:41:13.142Z,0.00
2023-05-19T00:42:13.137Z,0.00
2023-05-19T00:43:13.108Z,0.00
2023-05-19T00:44:13.093Z,0.00
2023-05-19T00:45:13.073Z,0.00
2023-05-19T00:46:13.165Z,0.00
2023-05-19T00:47:13.074Z,0.00
2023-05-19T00:48:13.079Z,0.00
2023-05-19T00:49:13.044Z,0.00
2023-05-19T00:50:13.037Z,0.00
2023-05-19T00:51:13.043Z,0.00
2023-05-19T00:52:13.014Z,0.00
2023-05-19T00:53:12.997Z,0.00
2023-05-19T00:54:12.996Z,0.00
2023-05-19T00:55:12.978Z,0.00
2023-05-19T00:56:13.001Z,0.00
2023-05-19T00:57:12.955Z,0.00
2023-05-19T00:58:12.964Z,0.00
2023-05-19T00:59:12.934Z,0.00
2023-05-19T01:00:12.935Z,0.00
2023-05-19T01:01:12.993Z,0.00
2023-05-19T01:02:12.911Z,0.00
2023-05-19T01:03:13.033Z,0.00
2023-05-19T01:04:12.891Z,0.00
2023-05-19T01:05:12.896Z,0.00
2023-05-19T01:06:13.460Z,0.00
2023-05-19T01:07:12.872Z,0.00
2023-05-19T01:08:12.871Z,0.00
2023-05-19T01:09:12.837Z,0.00
2023-05-19T01:10:12.868Z,0.00
2023-05-19T01:11:12.817Z,0.00
2023-05-19T01:12:12.824Z,0.00
2023-05-19T01:13:12.796Z,0.00
2023-05-19T01:14:12.793Z,0.00
2023-05-19T01:15:12.782Z,0.00
2023-05-19T01:16:12.917Z,0.00
2023-05-19T01:17:12.763Z,0.00
2023-05-19T01:18:12.773Z,0.00
2023-05-19T01:19:12.797Z,0.00
2023-05-19T01:20:12.755Z,0.00
2023-05-19T01:21:12.728Z,0.00
2023-05-19T01:22:12.733Z,0.00
2023-05-19T01:23:12.681Z,0.00
2023-05-19T01:24:12.687Z,0.00
2023-05-19T01:25:12.839Z,0.00
2023-05-19T01:26:12.684Z,0.00
2023-05-19T01:27:12.637Z,0.00
2023-05-19T01:28:12.630Z,0.00
2023-05-19T01:29:12.634Z,0.00
2023-05-19T01:30:12.659Z,0.00
2023-05-19T01:31:12.620Z,0.00
2023-05-19T01:32:12.640Z,0.00
2023-05-19T01:33:12.583Z,0.00
2023-05-19T01:34:12.605Z,0.00
2023-05-19T01:35:12.560Z,0.00
2023-05-19T01:36:12.579Z,0.00
2023-05-19T01:37:12.537Z,0.00
2023-05-19T01:38:12.600Z,0.00
2023-05-19T01:39:12.518Z,0.00
2023-05-19T01:40:12.527Z,0.00
2023-05-19T01:41:12.508Z,0.00
2023-05-19T01:42:12.495Z,0.00
2023-05-19T01:43:12.496Z,0.00
2023-05-19T01:44:12.490Z,0.00
2023-05-19T01:45:12.478Z,0.00
2023-05-19T01:46:12.508Z,0.00
2023-05-19T01:47:12.438Z,0.00
2023-05-19T01:48:12.501Z,0.00
2023-05-19T01:49:13.558Z,0.00
2023-05-19T01:50:12.427Z,0.00
2023-05-19T01:51:12.434Z,0.00
2023-05-19T01:52:12.409Z,0.00
2023-05-19T01:53:12.392Z,0.00
2023-05-19T01:54:12.360Z,0.00
2023-05-19T01:55:12.382Z,0.00
2023-05-19T01:56:13.761Z,0.00
2023-05-19T01:57:12.366Z,0.00
2023-05-19T01:58:12.336Z,0.00
2023-05-19T01:59:12.328Z,0.00
2023-05-19T02:00:12.313Z,0.00
2023-05-19T02:01:12.355Z,0.00
2023-05-19T02:02:12.285Z,0.00
2023-05-19T02:03:12.290Z,0.00
2023-05-19T02:04:12.324Z,0.00
2023-05-19T02:05:12.260Z,0.00
2023-05-19T02:06:12.275Z,0.00
2023-05-19T02:07:12.248Z,0.00
2023-05-19T02:08:12.248Z,0.00
2023-05-19T02:09:12.248Z,0.00
2023-05-19T02:10:12.236Z,0.00
2023-05-19T02:11:12.215Z,0.00
2023-05-19T02:12:12.192Z,0.00
2023-05-19T02:13:12.179Z,0.00
2023-05-19T02:14:12.154Z,0.00
2023-05-19T02:15:12.158Z,0.00
2023-05-19T02:16:12.177Z,0.00
2023-05-19T02:17:12.148Z,0.00
2023-05-19T02:18:12.127Z,0.00
2023-05-19T02:19:12.149Z,0.00
2023-05-19T02:20:12.097Z,0.00
2023-05-19T02:21:12.112Z,0.00
2023-05-19T02:22:12.067Z,0.00
2023-05-19T02:23:12.076Z,0.00
2023-05-19T02:24:12.049Z,0.00
2023-05-19T02:25:12.004Z,1.00
2023-05-19T02:26:12.063Z,0.00
2023-05-19T02:27:12.070Z,0.00
2023-05-19T02:28:11.966Z,1.00
2023-05-19T02:29:11.967Z,1.00
2023-05-19T02:30:11.940Z,1.00
2023-05-19T02:31:11.932Z,1.00
2023-05-19T02:32:11.983Z,2.00
2023-05-19T02:33:12.025Z,0.00
2023-05-19T02:34:11.905Z,2.00
2023-05-19T02:35:11.909Z,2.00
2023-05-19T02:36:11.876Z,1.00
2023-05-19T02:37:11.894Z,1.00
2023-05-19T02:38:11.850Z,2.00
2023-05-19T02:39:11.847Z,2.00
2023-05-19T02:40:11.854Z,3.00
2023-05-19T02:41:12.361Z,6.00
2023-05-19T02:42:11.832Z,7.00
2023-05-19T02:43:11.807Z,6.00
2023-05-19T02:44:11.780Z,8.00
2023-05-19T02:45:11.793Z,7.00
2023-05-19T02:46:11.821Z,5.00
2023-05-19T02:47:11.790Z,10.00
2023-05-19T02:48:11.773Z,10.00
2023-05-19T02:49:11.754Z,12.00
2023-05-19T02:50:11.730Z,11.00
2023-05-19T02:51:11.759Z,16.00
2023-05-19T02:52:11.700Z,13.00
2023-05-19T02:53:11.720Z,13.00
2023-05-19T02:54:11.702Z,22.00
2023-05-19T02:55:11.686Z,20.00
2023-05-19T02:56:11.708Z,24.00
2023-05-19T02:57:11.677Z,25.00
2023-05-19T02:58:11.647Z,27.00
2023-05-19T02:59:11.691Z,29.00
2023-05-19T03:00:11.625Z,31.00
2023-05-19T03:01:11.624Z,37.00
2023-05-19T03:02:11.794Z,38.00
2023-05-19T03:03:11.625Z,44.00
2023-05-19T03:04:11.587Z,44.00
2023-05-19T03:05:11.612Z,50.00
2023-05-19T03:06:11.552Z,54.00
2023-05-19T03:07:11.565Z,63.00
2023-05-19T03:08:11.546Z,62.00
2023-05-19T03:09:11.543Z,68.00
2023-05-19T03:10:11.544Z,76.00
2023-05-19T03:11:11.520Z,81.00
2023-05-19T03:12:11.528Z,82.00
2023-05-19T03:13:11.496Z,92.00
2023-05-19T03:14:11.472Z,93.00
2023-05-19T03:15:11.492Z,95.00
2023-05-19T03:16:11.491Z,97.00
2023-05-19T03:17:11.486Z,108.00
2023-05-19T03:18:11.467Z,116.00
2023-05-19T03:19:11.473Z,128.00
2023-05-19T03:20:11.428Z,129.00
2023-05-19T03:21:11.425Z,133.00
2023-05-19T03:22:11.514Z,146.00
2023-05-19T03:23:11.395Z,155.00
2023-05-19T03:24:11.372Z,161.00
2023-05-19T03:25:11.375Z,174.00
2023-05-19T03:26:11.351Z,182.00
2023-05-19T03:27:11.375Z,188.00
2023-05-19T03:28:11.325Z,200.00
2023-05-19T03:29:11.358Z,217.00
2023-05-19T03:30:11.318Z,220.00
2023-05-19T03:31:11.325Z,217.00
2023-05-19T03:32:11.306Z,219.00
2023-05-19T03:33:11.483Z,237.00
2023-05-19T03:34:11.299Z,248.00
2023-05-19T03:35:11.268Z,262.00
2023-05-19T03:36:11.245Z,270.00
2023-05-19T03:37:11.275Z,274.00
2023-05-19T03:38:11.234Z,280.00
2023-05-19T03:39:11.286Z,284.00
2023-05-19T03:40:11.217Z,277.00
2023-05-19T03:41:11.206Z,299.00
2023-05-19T03:42:11.183Z,339.00
2023-05-19T03:43:11.181Z,367.00
2023-05-19T03:44:11.191Z,382.00
2023-05-19T03:45:11.165Z,405.00
2023-05-19T03:46:11.221Z,421.00
2023-05-19T03:47:11.173Z,435.00
2023-05-19T03:48:11.211Z,449.00
2023-05-19T03:49:11.171Z,471.00
2023-05-19T03:50:11.130Z,479.00
2023-05-19T03:51:11.112Z,493.00
2023-05-19T03:52:11.086Z,510.00
2023-05-19T03:53:11.083Z,530.00
2023-05-19T03:54:11.063Z,544.00
2023-05-19T03:55:11.078Z,564.00
2023-05-19T03:56:11.055Z,580.00
2023-05-19T03:57:11.042Z,594.00
2023-05-19T03:58:11.025Z,614.00
2023-05-19T03:59:11.049Z,633.00
2023-05-19T04:00:11.000Z,650.00
2023-05-19T04:01:12.054Z,665.00
2023-05-19T04:02:11.015Z,692.00
2023-05-19T04:03:11.148Z,734.00
2023-05-19T04:04:11.021Z,766.00
2023-05-19T04:05:10.959Z,771.00
2023-05-19T04:06:10.936Z,780.00
2023-05-19T04:07:10.935Z,801.00
2023-05-19T04:08:10.933Z,815.00
2023-05-19T04:09:10.947Z,851.00
2023-05-19T04:10:10.911Z,853.00
2023-05-19T04:11:10.892Z,876.00
2023-05-19T04:12:10.886Z,914.00
2023-05-19T04:13:10.870Z,924.00
2023-05-19T04:14:11.385Z,939.00
2023-05-19T04:15:10.868Z,952.00
2023-05-19T04:16:10.863Z,982.00
2023-05-19T04:17:10.837Z,998.00
2023-05-19T04:18:10.845Z,1004.00
2023-05-19T04:19:10.855Z,1023.00
2023-05-19T04:20:10.786Z,1035.00
2023-05-19T04:21:10.807Z,1063.00
2023-05-19T04:22:10.771Z,1066.00
2023-05-19T04:23:10.766Z,1074.00
2023-05-19T04:24:10.776Z,1099.00
2023-05-19T04:25:10.745Z,1115.00
2023-05-19T04:26:10.775Z,1122.00
2023-05-19T04:27:10.733Z,1142.00
2023-05-19T04:28:10.761Z,1169.00
2023-05-19T04:29:10.733Z,1198.00
2023-05-19T04:30:10.699Z,1218.00
2023-05-19T04:31:10.770Z,1257.00
2023-05-19T04:32:10.683Z,1294.00
2023-05-19T04:33:10.712Z,1334.00
2023-05-19T04:34:10.672Z,1381.00
2023-05-19T04:35:10.634Z,1411.00
2023-05-19T04:36:10.716Z,1438.00
2023-05-19T04:37:10.631Z,1460.00
2023-05-19T04:38:10.619Z,1479.00
2023-05-19T04:39:10.597Z,1515.00
2023-05-19T04:40:10.629Z,1529.00
2023-05-19T04:41:10.596Z,1540.00
2023-05-19T04:42:10.566Z,1567.00
2023-05-19T04:43:10.605Z,1598.00
2023-05-19T04:44:11.262Z,1610.00
2023-05-19T04:45:10.556Z,1629.00
2023-05-19T04:46:13.184Z,1647.00
2023-05-19T04:47:10.541Z,1639.00
2023-05-19T04:48:10.544Z,1656.00
2023-05-19T04:49:10.499Z,1697.00
2023-05-19T04:50:10.500Z,1718.00
2023-05-19T04:51:10.484Z,1721.00
2023-05-19T04:52:12.075Z,1743.00
2023-05-19T04:53:10.486Z,1751.00
2023-05-19T04:54:10.439Z,1777.00
2023-05-19T04:55:12.099Z,1761.00
2023-05-19T04:56:11.107Z,1820.00
2023-05-19T04:57:13.893Z,1843.00
2023-05-19T04:58:11.034Z,1864.00
2023-05-19T04:59:10.386Z,1865.00
2023-05-19T05:00:11.002Z,1862.00
2023-05-19T05:01:10.375Z,1868.00
2023-05-19T05:02:10.578Z,1890.00
2023-05-19T05:03:11.720Z,1898.00
2023-05-19T05:04:10.453Z,1919.00
2023-05-19T05:05:10.336Z,1914.00
2023-05-19T05:06:10.627Z,1903.00
2023-05-19T05:07:10.304Z,1930.00
2023-05-19T05:08:10.318Z,2002.00
2023-05-19T05:09:10.281Z,2070.00
2023-05-19T05:10:10.262Z,2029.00
2023-05-19T05:11:10.273Z,2036.00
2023-05-19T05:12:10.247Z,2020.00
2023-05-19T05:13:11.864Z,2031.00
2023-05-19T05:14:10.226Z,2076.00
2023-05-19T05:15:10.223Z,2036.00
2023-05-19T05:16:10.231Z,2107.00
2023-05-19T05:17:10.257Z,2130.00
2023-05-19T05:18:10.325Z,2163.00
2023-05-19T05:19:10.234Z,2182.00
2023-05-19T05:20:10.158Z,2223.00
2023-05-19T05:21:10.164Z,2279.00
2023-05-19T05:22:10.166Z,2334.00
2023-05-19T05:23:10.160Z,2310.00
2023-05-19T05:24:10.124Z,2381.00
2023-05-19T05:25:10.115Z,2427.00
2023-05-19T05:26:10.089Z,2446.00
2023-05-19T05:27:10.262Z,2564.00
2023-05-19T05:28:10.111Z,2530.00
2023-05-19T05:29:10.062Z,2550.00
2023-05-19T05:30:10.526Z,2565.00
2023-05-19T05:31:10.050Z,2556.00
2023-05-19T05:32:10.116Z,2721.00
2023-05-19T05:33:10.215Z,2752.00
2023-05-19T05:34:10.637Z,2634.00
2023-05-19T05:35:10.008Z,2847.00
2023-05-19T05:36:09.997Z,2760.00
2023-05-19T05:37:10.148Z,2641.00
2023-05-19T05:38:09.969Z,2753.00
2023-05-19T05:39:09.966Z,2781.00
2023-05-19T05:40:09.948Z,2783.00
2023-05-19T05:41:10.222Z,2619.00
2023-05-19T05:42:09.960Z,2901.00
2023-05-19T05:43:09.919Z,3406.00
2023-05-19T05:44:09.899Z,2631.00
2023-05-19T05:45:09.923Z,3362.00
2023-05-19T05:46:10.233Z,2963.00
2023-05-19T05:47:10.004Z,2543.00
2023-05-19T05:48:09.893Z,2518.00
2023-05-19T05:49:09.888Z,2435.00
2023-05-19T05:50:09.870Z,2288.00
2023-05-19T05:51:09.849Z,2106.00
2023-05-19T05:52:09.819Z,2293.00
2023-05-19T05:53:09.814Z,2092.00
2023-05-19T05:54:09.790Z,2187.00
2023-05-19T05:55:09.834Z,2298.00
2023-05-19T05:56:09.772Z,2367.00
2023-05-19T05:57:09.800Z,2436.00
2023-05-19T05:58:09.772Z,2498.00
2023-05-19T05:59:09.805Z,1789.00
2023-05-19T06:00:09.787Z,3466.00
2023-05-19T06:01:09.746Z,2963.00
2023-05-19T06:02:09.787Z,2790.00
2023-05-19T06:03:10.041Z,2842.00
2023-05-19T06:04:09.707Z,2728.00
2023-05-19T06:05:09.754Z,2389.00
2023-05-19T06:06:09.678Z,2466.00
2023-05-19T06:07:09.694Z,3184.00
2023-05-19T06:08:09.654Z,2242.00
2023-05-19T06:09:09.650Z,3121.00
2023-05-19T06:10:09.649Z,3100.00
2023-05-19T06:11:09.649Z,2848.00
2023-05-19T06:12:09.633Z,3397.00
2023-05-19T06:13:09.616Z,3632.00
2023-05-19T06:14:09.598Z,3207.00
2023-05-19T06:15:09.579Z,2965.00
2023-05-19T06:16:09.669Z,3164.00
2023-05-19T06:17:09.560Z,2311.00
2023-05-19T06:18:09.603Z,3673.00
2023-05-19T06:19:09.559Z,2926.00
2023-05-19T06:20:09.539Z,2952.00
2023-05-19T06:21:09.761Z,3627.00
2023-05-19T06:22:09.507Z,2991.00
2023-05-19T06:23:09.508Z,7689.00
2023-05-19T06:24:09.487Z,3257.00
2023-05-19T06:25:09.475Z,1819.00
2023-05-19T06:26:10.886Z,8858.00
2023-05-19T06:27:09.456Z,2209.00
2023-05-19T06:28:09.450Z,3996.00
2023-05-19T06:29:09.439Z,8190.00
2023-05-19T06:30:09.450Z,12691.00
2023-05-19T06:31:09.509Z,9321.00
2023-05-19T06:32:09.440Z,10761.00
2023-05-19T06:33:09.417Z,12209.00
2023-05-19T06:34:09.387Z,20209.00
2023-05-19T06:35:09.366Z,3116.00
2023-05-19T06:36:09.406Z,11741.00
2023-05-19T06:37:09.342Z,22740.00
2023-05-19T06:38:09.360Z,10269.00
2023-05-19T06:39:09.403Z,13521.00
2023-05-19T06:40:09.960Z,2746.00
2023-05-19T06:41:09.334Z,4546.00
2023-05-19T06:42:09.310Z,14723.00
2023-05-19T06:43:09.316Z,15124.00
2023-05-19T06:44:09.287Z,13091.00
2023-05-19T06:45:09.254Z,15125.00
2023-05-19T06:46:10.096Z,14819.00
2023-05-19T06:47:09.327Z,13577.00
2023-05-19T06:48:09.318Z,12184.00
2023-05-19T06:49:10.436Z,18518.00
2023-05-19T06:50:10.593Z,16049.00
2023-05-19T06:51:09.220Z,18318.00
2023-05-19T06:52:10.332Z,18906.00
2023-05-19T06:53:12.419Z,12151.00
2023-05-19T06:54:09.197Z,13089.00
2023-05-19T06:55:10.713Z,16807.00
2023-05-19T06:56:10.211Z,11276.00
2023-05-19T06:57:09.125Z,8725.00
2023-05-19T06:58:11.238Z,12462.00
2023-05-19T06:59:09.138Z,10607.00
2023-05-19T07:00:09.114Z,17039.00
2023-05-19T07:01:10.725Z,11530.00
2023-05-19T07:02:10.764Z,13806.00
2023-05-19T07:03:09.179Z,11693.00
2023-05-19T07:04:10.665Z,16124.00
2023-05-19T07:05:09.051Z,15234.00
2023-05-19T07:06:09.660Z,13238.00
2023-05-19T07:07:09.737Z,16703.00
2023-05-19T07:08:09.051Z,12814.00
2023-05-19T07:09:10.550Z,15148.00
2023-05-19T07:10:09.000Z,19413.00
2023-05-19T07:11:08.986Z,18438.00
2023-05-19T07:12:08.981Z,17047.00
2023-05-19T07:13:08.998Z,25680.00
2023-05-19T07:14:12.091Z,18361.00
2023-05-19T07:15:09.561Z,15822.00
2023-05-19T07:16:11.143Z,20649.00
2023-05-19T07:17:08.950Z,74968.00
2023-05-19T07:18:08.958Z,21235.00
2023-05-19T07:19:08.954Z,25394.00
2023-05-19T07:20:10.561Z,23729.00
2023-05-19T07:21:09.569Z,14697.00
2023-05-19T07:22:08.895Z,77471.00
2023-05-19T07:23:08.877Z,77163.00
2023-05-19T07:24:08.852Z,75621.00
2023-05-19T07:25:08.841Z,76114.00
2023-05-19T07:26:08.833Z,75452.00
2023-05-19T07:27:09.459Z,21614.00
2023-05-19T07:28:10.363Z,34135.00
2023-05-19T07:29:10.090Z,19758.00
2023-05-19T07:30:10.386Z,17025.00
2023-05-19T07:31:08.792Z,5453.00
2023-05-19T07:32:09.534Z,67460.00
2023-05-19T07:33:10.440Z,7545.00
2023-05-19T07:34:10.054Z,78370.00
2023-05-19T07:35:08.730Z,65953.00
2023-05-19T07:36:10.109Z,6732.00
2023-05-19T07:37:08.730Z,60872.00
2023-05-19T07:38:08.709Z,3829.00
2023-05-19T07:39:10.397Z,21488.00
2023-05-19T07:40:08.703Z,3983.00
2023-05-19T07:41:10.273Z,27471.00
2023-05-19T07:42:08.694Z,9735.00
2023-05-19T07:43:08.641Z,60938.00
2023-05-19T07:44:10.201Z,4132.00
2023-05-19T07:45:08.608Z,13337.00
2023-05-19T07:46:09.305Z,12086.00
2023-05-19T07:47:09.509Z,4617.00
2023-05-19T07:48:08.606Z,3918.00
2023-05-19T07:49:10.103Z,7159.00
2023-05-19T07:50:08.566Z,79801.00
2023-05-19T07:51:08.570Z,69512.00
2023-05-19T07:52:11.511Z,24760.00
2023-05-19T07:53:08.550Z,82366.00
2023-05-19T07:54:08.545Z,81138.00
2023-05-19T07:55:08.516Z,81994.00
2023-05-19T07:56:08.539Z,82050.00
2023-05-19T07:57:08.498Z,63063.00
2023-05-19T07:58:08.482Z,16013.00
2023-05-19T07:59:08.491Z,3799.00
2023-05-19T08:00:09.157Z,25722.00
2023-05-19T08:01:09.158Z,12374.00
2023-05-19T08:02:08.476Z,8919.00
2023-05-19T08:03:09.269Z,9883.00
2023-05-19T08:04:10.376Z,3310.00
2023-05-19T08:05:09.095Z,12317.00
2023-05-19T08:06:08.434Z,11539.00
2023-05-19T08:07:10.020Z,3352.00
2023-05-19T08:08:08.399Z,14763.00
2023-05-19T08:09:08.995Z,4653.00
2023-05-19T08:10:08.366Z,10810.00
2023-05-19T08:11:08.564Z,10522.00
2023-05-19T08:12:08.351Z,6525.00
2023-05-19T08:13:08.345Z,8156.00
2023-05-19T08:14:09.888Z,7657.00
2023-05-19T08:15:08.306Z,6652.00
2023-05-19T08:16:08.459Z,9873.00
2023-05-19T08:17:08.309Z,3514.00
2023-05-19T08:18:08.329Z,15373.00
2023-05-19T08:19:08.355Z,10943.00
2023-05-19T08:20:08.351Z,6563.00
2023-05-19T08:21:08.252Z,13910.00
2023-05-19T08:22:08.261Z,8057.00
2023-05-19T08:23:08.230Z,4220.00
2023-05-19T08:24:08.242Z,4625.00
2023-05-19T08:25:08.229Z,22542.00
2023-05-19T08:26:08.211Z,7802.00
2023-05-19T08:27:08.241Z,13246.00
2023-05-19T08:28:08.209Z,4969.00
2023-05-19T08:29:08.185Z,6805.00
2023-05-19T08:30:08.190Z,7029.00
2023-05-19T08:31:08.328Z,75148.00
2023-05-19T08:32:08.518Z,33526.00
2023-05-19T08:33:08.206Z,8310.00
2023-05-19T08:34:08.139Z,63345.00
2023-05-19T08:35:08.111Z,14581.00
2023-05-19T08:36:08.124Z,6917.00
2023-05-19T08:37:08.136Z,7392.00
2023-05-19T08:38:08.091Z,8068.00
2023-05-19T08:39:08.068Z,10932.00
2023-05-19T08:40:08.060Z,16794.00
2023-05-19T08:41:08.050Z,10898.00
2023-05-19T08:42:08.065Z,10071.00
2023-05-19T08:43:08.025Z,9737.00
2023-05-19T08:44:08.032Z,80410.00
2023-05-19T08:45:08.006Z,65187.00
2023-05-19T08:46:08.064Z,15621.00
2023-05-19T08:47:08.174Z,14167.00
2023-05-19T08:48:08.055Z,5792.00
2023-05-19T08:49:07.953Z,9638.00
2023-05-19T08:50:08.042Z,77731.00
2023-05-19T08:51:07.927Z,83416.00
2023-05-19T08:52:07.955Z,67239.00
2023-05-19T08:53:12.758Z,8929.00
2023-05-19T08:54:07.922Z,81718.00
2023-05-19T08:55:07.921Z,58500.00
2023-05-19T08:56:07.898Z,6749.00
2023-05-19T08:57:07.907Z,6855.00
2023-05-19T08:58:07.882Z,20475.00
2023-05-19T08:59:07.839Z,12996.00
2023-05-19T09:00:07.867Z,81122.00
2023-05-19T09:01:07.871Z,58429.00
2023-05-19T09:02:07.849Z,4765.00
2023-05-19T09:04:07.984Z,4425.00
2023-05-19T09:05:07.848Z,4024.00
2023-05-19T09:06:08.112Z,4172.00
2023-05-19T09:07:07.794Z,3857.00
2023-05-19T09:08:07.787Z,4732.00
2023-05-19T09:09:07.747Z,5982.00
2023-05-19T09:10:07.756Z,5364.00
2023-05-19T09:11:07.764Z,5405.00
2023-05-19T09:12:07.756Z,83082.00
2023-05-19T09:13:07.726Z,60295.00
2023-05-19T09:14:08.345Z,3329.00
2023-05-19T09:15:07.683Z,7949.00
2023-05-19T09:16:07.737Z,19575.00
2023-05-19T09:17:07.698Z,6062.00
2023-05-19T09:18:07.689Z,5005.00
2023-05-19T09:19:07.712Z,3999.00
2023-05-19T09:20:07.639Z,3403.00
2023-05-19T09:21:07.710Z,5124.00
2023-05-19T09:22:07.651Z,5492.00
2023-05-19T09:23:07.602Z,5510.00
2023-05-19T09:24:07.596Z,5618.00
2023-05-19T09:25:07.610Z,3826.00
2023-05-19T09:26:08.210Z,28494.00
2023-05-19T09:27:07.799Z,11394.00
2023-05-19T09:28:07.546Z,8861.00
2023-05-19T09:29:07.533Z,8203.00
2023-05-19T09:30:08.178Z,7128.00
2023-05-19T09:31:18.577Z,6472.00
2023-05-19T09:32:08.210Z,10372.00
2023-05-19T09:33:07.535Z,2280.00
2023-05-19T09:34:08.138Z,8224.00
2023-05-19T09:35:09.093Z,6978.00
2023-05-19T09:36:07.479Z,6115.00
2023-05-19T09:37:07.450Z,7304.00
2023-05-19T09:38:07.481Z,10911.00
2023-05-19T09:39:07.435Z,3386.00
2023-05-19T09:40:07.430Z,7656.00
2023-05-19T09:41:09.057Z,6101.00
2023-05-19T09:42:07.608Z,4404.00
2023-05-19T09:43:07.404Z,4848.00
2023-05-19T09:44:07.411Z,7460.00
2023-05-19T09:45:07.370Z,6815.00
2023-05-19T09:46:07.564Z,9391.00
2023-05-19T09:47:09.000Z,2925.00
2023-05-19T09:48:08.116Z,7170.00
2023-05-19T09:49:07.333Z,6807.00
2023-05-19T09:50:08.882Z,6628.00
2023-05-19T09:51:08.350Z,9695.00
2023-05-19T09:52:07.935Z,8038.00
2023-05-19T09:53:07.292Z,5173.00
2023-05-19T09:54:07.311Z,4133.00
2023-05-19T09:55:07.287Z,3288.00
2023-05-19T09:56:07.270Z,1951.00
2023-05-19T09:57:09.345Z,5606.00
2023-05-19T09:58:07.243Z,5043.00
2023-05-19T09:59:07.375Z,6902.00
2023-05-19T10:00:07.237Z,8567.00
2023-05-19T10:01:07.243Z,9914.00
2023-05-19T10:02:07.231Z,5637.00
2023-05-19T10:03:07.227Z,4038.00
2023-05-19T10:04:07.520Z,2819.00
2023-05-19T10:05:07.232Z,3763.00
2023-05-19T10:06:07.171Z,4070.00
2023-05-19T10:07:07.160Z,5165.00
2023-05-19T10:08:07.159Z,4696.00
2023-05-19T10:09:07.115Z,4860.00
2023-05-19T10:10:07.150Z,6725.00
2023-05-19T10:11:07.151Z,7654.00
2023-05-19T10:12:07.138Z,7077.00
2023-05-19T10:13:07.167Z,6494.00
2023-05-19T10:14:07.126Z,6867.00
2023-05-19T10:15:07.167Z,6398.00
2023-05-19T10:16:07.085Z,5011.00
2023-05-19T10:17:07.108Z,5290.00
2023-05-19T10:18:09.319Z,5204.00
2023-05-19T10:19:07.063Z,5944.00
2023-05-19T10:20:07.056Z,5623.00
2023-05-19T10:21:07.006Z,5439.00
2023-05-19T10:22:06.989Z,5445.00
2023-05-19T10:23:06.986Z,5222.00
2023-05-19T10:24:06.970Z,4764.00
2023-05-19T10:25:06.989Z,6471.00
2023-05-19T10:26:06.965Z,6527.00
2023-05-19T10:27:06.954Z,5096.00
2023-05-19T10:28:06.930Z,5046.00
2023-05-19T10:29:06.926Z,5299.00
2023-05-19T10:30:08.279Z,4432.00
2023-05-19T10:31:07.145Z,5091.00
2023-05-19T10:32:06.932Z,6351.00
2023-05-19T10:33:06.922Z,7191.00
2023-05-19T10:34:06.865Z,6624.00
2023-05-19T10:35:06.887Z,6643.00
2023-05-19T10:36:06.844Z,5644.00
2023-05-19T10:37:06.844Z,5621.00
2023-05-19T10:38:06.820Z,5644.00
2023-05-19T10:39:06.825Z,4692.00
2023-05-19T10:40:07.967Z,4397.00
2023-05-19T10:41:06.824Z,2214.00
2023-05-19T10:42:06.784Z,3821.00
2023-05-19T10:43:06.771Z,7345.00
2023-05-19T10:44:07.312Z,12235.00
2023-05-19T10:45:06.751Z,8189.00
2023-05-19T10:46:06.754Z,10431.00
2023-05-19T10:47:06.760Z,3573.00
2023-05-19T10:48:06.813Z,14532.00
2023-05-19T10:49:06.713Z,8949.00
2023-05-19T10:50:08.016Z,6176.00
2023-05-19T10:51:06.705Z,5298.00
2023-05-19T10:52:06.673Z,4896.00
2023-05-19T10:53:06.687Z,5052.00
2023-05-19T10:54:06.676Z,5603.00
2023-05-19T10:55:06.646Z,6302.00
2023-05-19T10:56:06.648Z,6069.00
2023-05-19T10:57:06.630Z,5454.00
2023-05-19T10:58:06.632Z,2329.00
2023-05-19T10:59:06.634Z,11299.00
2023-05-19T11:00:06.585Z,6725.00
2023-05-19T11:01:06.598Z,7075.00
2023-05-19T11:02:06.638Z,6088.00
2023-05-19T11:03:06.671Z,5076.00
2023-05-19T11:04:06.682Z,6026.00
2023-05-19T11:05:06.547Z,4394.00
2023-05-19T11:06:06.526Z,6394.00
2023-05-19T11:07:06.523Z,6015.00
2023-05-19T11:08:06.696Z,8890.00
2023-05-19T11:09:06.528Z,5490.00
2023-05-19T11:10:06.488Z,6562.00
2023-05-19T11:11:06.499Z,6955.00
2023-05-19T11:12:06.474Z,5507.00
2023-05-19T11:13:06.924Z,7423.00
2023-05-19T11:14:06.480Z,5786.00
2023-05-19T11:15:06.453Z,6062.00
2023-05-19T11:16:06.468Z,6574.00
2023-05-19T11:17:06.497Z,6096.00
2023-05-19T11:18:06.482Z,6621.00
2023-05-19T11:19:06.519Z,6562.00
2023-05-19T11:20:06.389Z,6588.00
2023-05-19T11:21:06.415Z,6750.00
2023-05-19T11:22:06.368Z,6778.00
2023-05-19T11:23:06.399Z,6537.00
2023-05-19T11:24:06.433Z,6119.00
2023-05-19T11:25:06.346Z,6085.00
2023-05-19T11:26:06.326Z,6625.00
2023-05-19T11:27:06.327Z,7033.00
2023-05-19T11:28:06.307Z,7841.00
2023-05-19T11:29:06.331Z,8261.00
2023-05-19T11:30:06.280Z,7847.00
2023-05-19T11:31:06.314Z,6662.00
2023-05-19T11:32:06.305Z,6729.00
2023-05-19T11:33:06.321Z,5927.00
2023-05-19T11:34:06.253Z,6094.00
2023-05-19T11:35:06.247Z,6755.00
2023-05-19T11:36:06.246Z,6302.00
2023-05-19T11:37:06.243Z,5768.00
2023-05-19T11:38:06.210Z,5694.00
2023-05-19T11:39:06.225Z,5616.00
2023-05-19T11:40:06.209Z,6035.00
2023-05-19T11:41:06.220Z,6041.00
2023-05-19T11:42:06.169Z,6113.00
2023-05-19T11:43:06.163Z,5855.00
2023-05-19T11:44:06.165Z,5649.00
2023-05-19T11:45:06.141Z,5875.00
2023-05-19T11:46:06.190Z,6868.00
2023-05-19T11:47:06.264Z,6581.00
2023-05-19T11:48:06.117Z,7487.00
2023-05-19T11:49:06.120Z,7009.00
2023-05-19T11:50:06.079Z,6923.00
2023-05-19T11:51:06.099Z,5700.00
2023-05-19T11:52:06.055Z,5098.00
2023-05-19T11:53:06.068Z,5048.00
2023-05-19T11:54:06.064Z,5080.00
2023-05-19T11:55:06.031Z,4652.00
2023-05-19T11:56:06.056Z,6638.00
2023-05-19T11:57:06.010Z,5634.00
2023-05-19T11:58:06.226Z,5892.00
2023-05-19T11:59:06.024Z,5905.00
2023-05-19T12:00:05.970Z,6487.00
2023-05-19T12:01:05.974Z,7932.00
2023-05-19T12:02:05.948Z,8237.00
2023-05-19T12:03:06.238Z,8321.00
2023-05-19T12:04:05.969Z,8664.00
2023-05-19T12:05:06.005Z,8605.00
2023-05-19T12:06:05.993Z,7673.00
2023-05-19T12:07:05.907Z,7249.00
2023-05-19T12:08:05.888Z,7709.00
2023-05-19T12:09:05.905Z,8674.00
2023-05-19T12:10:05.866Z,9089.00
2023-05-19T12:11:05.865Z,8927.00
2023-05-19T12:12:05.876Z,8977.00
2023-05-19T12:13:05.857Z,9582.00
2023-05-19T12:14:05.833Z,9416.00
2023-05-19T12:15:05.828Z,9207.00
2023-05-19T12:16:05.906Z,9281.00
2023-05-19T12:17:05.834Z,8768.00
2023-05-19T12:18:05.864Z,9280.00
2023-05-19T12:19:05.798Z,9448.00
2023-05-19T12:20:05.796Z,9322.00
2023-05-19T12:21:05.770Z,8889.00
2023-05-19T12:22:05.769Z,8089.00